Time;durP1;ratioP1;P1;durP2;ratioP2;P2;SDS_P1;SDS_P2;PMS_P1;PMS_P2;Temp;Humidity;BMP_temperature;BMP_pressure;BME280_temperature;BME280_humidity;BME280_pressure;Samples;Min_cycle;Max_cycle;Signal;HPM_P1;HPM_P2
2022/06/06 00:01:11;;;;;;;;;;;;;;;23.02;47.28;100836.63;5040406;28;19917;-61
2022/06/06 00:03:36;;;;;;;;;;;;;;;23.02;46.73;100841.88;5048457;28;19917;-62
2022/06/06 00:06:01;;;;;;;;;;;;;;;23.02;47.14;100852.38;5058988;28;19917;-62
2022/06/06 00:08:27;;;;;;;;;;;;;;;23.03;47.40;100856.78;5049930;28;19920;-62
2022/06/06 00:10:55;;;;;;;;;;;;;;;23.02;47.35;100862.91;5063284;28;20072;-62
2022/06/06 00:13:20;;;;;;;;;;;;;;;23.02;46.96;100857.66;5046606;28;20019;-60
2022/06/06 00:15:45;;;;;;;;;;;;;;;23.02;46.97;100857.66;5047167;28;20340;-60
2022/06/06 00:18:10;;;;;;;;;;;;;;;23.02;46.87;100873.41;5050163;28;20166;-60
2022/06/06 00:20:35;;;;;;;;;;;;;;;23.02;47.22;100883.91;5050673;28;20316;-60
2022/06/06 00:23:03;;;;;;;;;;;;;;;23.03;47.11;100890.91;5057962;28;20273;-60
2022/06/06 00:25:28;;;;;;;;;;;;;;;23.02;47.06;100889.16;5049448;28;19970;-60
2022/06/06 00:27:54;;;;;;;;;;;;;;;23.02;46.84;100904.94;5047623;28;19920;-60
2022/06/06 00:30:19;;;;;;;;;;;;;;;23.03;47.34;100919.81;5048560;28;19917;-61
2022/06/06 00:35:28;;;;;;;;;;;;;;;23.02;46.95;100925.94;5044936;28;19939;-63
2022/06/06 00:37:56;;;;;;;;;;;;;;;23.02;47.22;100904.94;5048695;28;19924;-63
2022/06/06 00:40:26;;;;;;;;;;;;;;;23.02;47.20;100910.19;5051591;28;20077;-63
2022/06/06 00:42:51;;;;;;;;;;;;;;;23.02;47.41;100912.81;4604657;22;20334;-49
2022/06/06 00:45:28;;;;;;;;;;;;;;;23.03;47.36;100906.69;5081558;28;19916;-50
2022/06/06 00:48:02;;;;;;;;;;;;;;;23.02;47.09;100904.94;5070787;28;19955;-50
2022/06/06 00:50:33;;;;;;;;;;;;;;;23.03;47.58;100911.94;5093651;28;19990;-47
2022/06/06 00:52:59;;;;;;;;;;;;;;;23.04;47.26;100918.03;5054608;28;19920;-50
2022/06/06 00:55:25;;;;;;;;;;;;;;;23.03;47.37;100906.69;5075698;28;19970;-46
2022/06/06 00:57:52;;;;;;;;;;;;;;;23.03;47.38;100901.41;5072158;28;20403;-50
2022/06/06 01:00:18;;;;;;;;;;;;;;;23.04;47.51;100881.28;5057429;28;19915;-51
2022/06/06 01:02:44;;;;;;;;;;;;;;;23.04;46.94;100876.00;5050456;28;19942;-50
2022/06/06 01:05:10;;;;;;;;;;;;;;;23.03;47.37;100862.03;5083215;28;19912;-49
2022/06/06 01:07:35;;;;;;;;;;;;;;;23.04;48.06;100871.66;5073720;28;19945;-50
2022/06/06 01:10:00;;;;;;;;;;;;;;;23.05;47.39;100867.25;5094928;28;20357;-47
2022/06/06 01:12:25;;;;;;;;;;;;;;;23.04;46.58;100855.00;5066469;28;19966;-51
2022/06/06 01:14:55;;;;;;;;;;;;;;;23.04;47.42;100855.91;5075722;28;20426;-47
2022/06/06 01:17:20;;;;;;;;;;;;;;;23.04;46.69;100848.03;5063781;28;19920;-45
2022/06/06 01:19:48;;;;;;;;;;;;;;;23.04;47.65;100850.63;5094302;28;20402;-46
2022/06/06 01:22:22;;;;;;;;;;;;;;;23.04;47.31;100834.88;5073783;28;20006;-48
2022/06/06 01:25:06;;;;;;;;;;;;;;;23.03;47.55;100837.50;5088615;28;19962;-47
2022/06/06 01:27:38;;;;;;;;;;;;;;;23.03;47.37;100827.88;5092597;28;20276;-45
2022/06/06 01:30:05;;;;;;;;;;;;;;;23.03;47.48;100822.63;5069294;28;19917;-49
2022/06/06 01:32:33;;;;;;;;;;;;;;;23.03;46.95;100822.63;5076853;28;20047;-45
2022/06/06 01:34:58;;;;;;;;;;;;;;;23.03;47.39;100822.63;5074269;28;19920;-48
2022/06/06 01:37:32;;;;;;;;;;;;;;;23.03;47.77;100817.38;5093316;28;19923;-54
2022/06/06 01:40:00;;;;;;;;;;;;;;;23.03;47.98;100817.38;5073749;28;20325;-50
2022/06/06 01:42:32;;;;;;;;;;;;;;;23.04;47.71;100808.63;5059263;28;19955;-51
2022/06/06 01:45:08;;;;;;;;;;;;;;;23.04;48.35;100803.38;5090198;28;19923;-50
2022/06/06 01:47:35;;;;;;;;;;;;;;;23.04;48.35;100795.47;5071199;28;19916;-53
2022/06/06 01:50:00;;;;;;;;;;;;;;;23.05;48.00;100793.72;5076078;28;19970;-47
2022/06/06 01:52:26;;;;;;;;;;;;;;;23.04;48.43;100787.59;5076828;28;19920;-50
2022/06/06 01:54:55;;;;;;;;;;;;;;;23.05;48.43;100789.34;5087377;28;19939;-49
2022/06/06 01:57:20;;;;;;;;;;;;;;;23.04;48.01;100787.59;5056223;28;20292;-51
2022/06/06 01:59:45;;;;;;;;;;;;;;;23.05;48.11;100791.09;5070002;28;19916;-48
2022/06/06 02:02:11;;;;;;;;;;;;;;;23.08;48.04;100782.34;5092509;28;20004;-47
2022/06/06 02:04:36;;;;;;;;;;;;;;;23.07;47.79;100786.72;5073506;28;19990;-47
2022/06/06 02:07:01;;;;;;;;;;;;;;;23.06;47.92;100790.22;5076283;28;19915;-51
2022/06/06 02:09:31;;;;;;;;;;;;;;;23.05;48.05;100784.09;5061863;28;19924;-57
2022/06/06 02:11:57;;;;;;;;;;;;;;;23.06;47.73;100790.22;5066725;28;19912;-48
2022/06/06 02:14:25;;;;;;;;;;;;;;;23.07;48.30;100780.59;5070694;28;20038;-47
2022/06/06 02:16:51;;;;;;;;;;;;;;;23.08;48.77;100782.34;5091629;28;19924;-46
2022/06/06 02:19:19;;;;;;;;;;;;;;;23.07;47.73;100785.84;5071770;28;20257;-51
2022/06/06 02:21:44;;;;;;;;;;;;;;;23.10;47.82;100785.84;5059628;28;20426;-57
2022/06/06 02:24:09;;;;;;;;;;;;;;;23.10;47.94;100786.72;5073487;28;19961;-56
2022/06/06 02:26:35;;;;;;;;;;;;;;;23.10;47.72;100785.84;5075752;28;20403;-56
2022/06/06 02:29:00;;;;;;;;;;;;;;;23.08;48.03;100775.31;5075910;28;20340;-51
2022/06/06 02:31:26;;;;;;;;;;;;;;;23.12;48.68;100784.09;5075844;28;19916;-51
2022/06/06 02:33:51;;;;;;;;;;;;;;;23.10;48.07;100775.34;5056934;28;19917;-47
2022/06/06 02:36:17;;;;;;;;;;;;;;;23.08;47.86;100777.09;5074841;28;19924;-52
2022/06/06 02:38:42;;;;;;;;;;;;;;;23.08;48.59;100777.09;5053503;28;19923;-51
2022/06/06 02:41:10;;;;;;;;;;;;;;;23.07;48.05;100775.34;5075148;28;19927;-49
2022/06/06 02:43:37;;;;;;;;;;;;;;;23.07;48.35;100775.34;5073234;28;19970;-48
2022/06/06 02:46:04;;;;;;;;;;;;;;;23.08;47.92;100782.34;5058018;28;19916;-51
2022/06/06 02:48:30;;;;;;;;;;;;;;;23.08;48.08;100793.72;5056818;28;20288;-49
2022/06/06 02:50:55;;;;;;;;;;;;;;;23.08;48.10;100795.47;5068150;28;19915;-54
2022/06/06 02:53:21;;;;;;;;;;;;;;;23.07;48.23;100796.34;5053890;28;19920;-49
2022/06/06 02:55:46;;;;;;;;;;;;;;;23.08;47.77;100787.59;5054293;28;19917;-54
2022/06/06 02:58:11;;;;;;;;;;;;;;;23.07;48.29;100797.22;5071535;28;19998;-51
2022/06/06 03:00:42;;;;;;;;;;;;;;;23.08;48.68;100787.59;5074642;28;19978;-53
2022/06/06 03:03:08;;;;;;;;;;;;;;;23.07;48.48;100797.22;5072161;28;19926;-50
2022/06/06 03:05:48;;;;;;;;;;;;;;;23.07;48.24;100791.97;5071287;28;19920;-53
2022/06/06 03:08:26;;;;;;;;;;;;;;;23.07;48.37;100791.97;5080854;28;19951;-47
2022/06/06 03:11:14;;;;;;;;;;;;;;;23.07;48.67;100796.34;5073886;28;19942;-51
2022/06/06 03:13:59;;;;;;;;;;;;;;;23.07;48.46;100796.34;5062847;28;19916;-50
2022/06/06 03:22:13;;;;;;;;;;;;;;;23.08;48.70;100803.34;5091838;28;19923;-45
2022/06/06 03:24:41;;;;;;;;;;;;;;;23.09;48.84;100805.13;5079250;28;19963;-43
2022/06/06 03:27:20;;;;;;;;;;;;;;;23.08;48.37;100806.00;5090724;28;19912;-45
2022/06/06 03:29:59;;;;;;;;;;;;;;;23.08;48.12;100819.13;5061929;28;19952;-52
2022/06/06 03:32:35;;;;;;;;;;;;;;;23.07;48.81;100812.97;5072618;28;19923;-47
2022/06/06 03:35:19;;;;;;;;;;;;;;;23.07;49.11;100812.97;5072179;28;19915;-49
2022/06/06 03:37:50;;;;;;;;;;;;;;;23.08;48.60;100824.38;5074829;28;19969;-51
2022/06/06 03:40:35;;;;;;;;;;;;;;;23.07;48.79;100817.38;5088322;28;19994;-50
2022/06/06 03:43:19;;;;;;;;;;;;;;;23.07;48.24;100827.88;5083363;28;19963;-46
2022/06/06 03:45:48;;;;;;;;;;;;;;;23.08;48.46;100821.75;5084406;28;19924;-52
2022/06/06 03:48:32;;;;;;;;;;;;;;;23.07;49.21;100822.63;5052116;28;19916;-50
2022/06/06 03:50:57;;;;;;;;;;;;;;;23.08;48.48;100834.88;5087371;28;20293;-46
2022/06/06 03:53:26;;;;;;;;;;;;;;;23.08;48.58;100829.63;5081233;28;19916;-46
2022/06/06 03:56:13;;;;;;;;;;;;;;;23.07;48.90;100838.38;5054017;28;19923;-46
2022/06/06 03:58:39;;;;;;;;;;;;;;;23.07;49.09;100830.50;5071757;28;19963;-49
2022/06/06 04:01:06;;;;;;;;;;;;;;;23.07;48.52;100844.50;5055858;28;19997;-49
2022/06/06 04:03:31;;;;;;;;;;;;;;;23.07;48.87;100838.38;5059784;28;19916;-46
2022/06/06 04:05:57;;;;;;;;;;;;;;;23.09;48.24;100847.16;5054604;28;20393;-46
2022/06/06 04:08:22;;;;;;;;;;;;;;;23.08;48.39;100845.38;5092356;28;20039;-49
2022/06/06 04:10:54;;;;;;;;;;;;;;;23.08;49.57;100840.13;5052971;28;19965;-51
2022/06/06 04:13:27;;;;;;;;;;;;;;;23.07;48.84;100838.38;5072752;28;19922;-44
2022/06/06 04:15:55;;;;;;;;;;;;;;;23.10;49.02;100843.63;5073899;28;19919;-53
2022/06/06 04:18:31;;;;;;;;;;;;;;;23.10;48.96;100843.63;5067788;28;19916;-45
2022/06/06 04:21:01;;;;;;;;;;;;;;;23.08;48.80;100842.75;5090171;28;20384;-46
2022/06/06 04:23:45;;;;;;;;;;;;;;;23.08;49.60;100842.75;5088838;28;19944;-48
2022/06/06 04:26:10;;;;;;;;;;;;;;;23.07;48.99;100843.63;5079014;28;20381;-45
2022/06/06 04:28:54;;;;;;;;;;;;;;;23.07;48.23;100843.63;5071426;28;20007;-49
2022/06/06 04:31:42;;;;;;;;;;;;;;;23.09;48.98;100852.41;5082213;28;20407;-48
2022/06/06 04:34:20;;;;;;;;;;;;;;;23.08;49.33;100855.91;5073127;28;19916;-46
2022/06/06 04:36:45;;;;;;;;;;;;;;;23.08;48.68;100848.03;5055644;28;19970;-46
2022/06/06 04:39:28;;;;;;;;;;;;;;;23.09;48.86;100852.41;5091369;28;19923;-48
2022/06/06 04:42:04;;;;;;;;;;;;;;;23.09;49.05;100855.03;5071941;28;19916;-47
2022/06/06 04:44:35;;;;;;;;;;;;;;;23.09;49.39;100857.66;5052509;28;20026;-49
2022/06/06 04:47:10;;;;;;;;;;;;;;;23.09;48.92;100852.41;5069469;28;19966;-49
2022/06/06 04:49:35;;;;;;;;;;;;;;;23.08;49.24;100855.91;5089281;28;19960;-48
2022/06/06 04:52:03;;;;;;;;;;;;;;;23.08;49.68;100855.91;5045535;28;19916;-48
2022/06/06 04:54:28;;;;;;;;;;;;;;;23.09;48.49;100873.41;5069836;28;19944;-49
2022/06/06 04:56:53;;;;;;;;;;;;;;;23.09;49.69;100870.78;5054638;28;19958;-47
2022/06/06 04:59:20;;;;;;;;;;;;;;;23.10;48.85;100880.41;5055972;28;20412;-50
2022/06/06 05:01:45;;;;;;;;;;;;;;;23.09;49.07;100868.16;5090080;28;20353;-49
2022/06/06 05:04:10;;;;;;;;;;;;;;;23.10;49.08;100885.66;5087368;28;19924;-52
2022/06/06 05:06:35;;;;;;;;;;;;;;;23.09;48.82;100863.75;5053016;28;19916;-47
2022/06/06 05:09:19;;;;;;;;;;;;;;;23.09;49.65;100868.16;5072900;28;19923;-45
2022/06/06 05:11:53;;;;;;;;;;;;;;;23.09;48.83;100878.66;5089418;28;19967;-45
2022/06/06 05:14:19;;;;;;;;;;;;;;;23.09;48.73;100884.78;5089297;28;19920;-44
2022/06/06 05:16:59;;;;;;;;;;;;;;;23.09;49.09;100894.44;5090810;28;19923;-48
2022/06/06 05:19:30;;;;;;;;;;;;;;;23.09;48.61;100897.06;5053798;28;19967;-49
2022/06/06 05:22:02;;;;;;;;;;;;;;;23.09;49.57;100890.03;5058157;28;19916;-47
2022/06/06 05:24:30;;;;;;;;;;;;;;;23.09;49.89;100904.94;5082431;28;19916;-47
2022/06/06 05:27:14;;;;;;;;;;;;;;;23.09;49.16;100905.78;5089632;28;20007;-54
2022/06/06 05:29:42;;;;;;;;;;;;;;;23.09;48.96;100894.44;5069215;28;19916;-50
2022/06/06 05:32:23;;;;;;;;;;;;;;;23.09;49.04;100899.69;5070281;28;20287;-48
2022/06/06 05:35:08;;;;;;;;;;;;;;;23.10;49.64;100906.69;5068122;28;20391;-49
2022/06/06 05:37:44;;;;;;;;;;;;;;;23.09;49.48;100910.19;5093455;28;19928;-49
2022/06/06 05:40:25;;;;;;;;;;;;;;;23.10;49.21;100909.31;5077511;28;19923;-46
2022/06/06 05:43:02;;;;;;;;;;;;;;;23.09;48.82;100920.69;5075835;28;20341;-45
2022/06/06 05:45:37;;;;;;;;;;;;;;;23.10;49.38;100922.44;5075334;28;19924;-50
2022/06/06 05:48:11;;;;;;;;;;;;;;;23.10;49.14;100917.19;5092803;28;19922;-49
2022/06/06 05:50:39;;;;;;;;;;;;;;;23.09;48.97;100920.69;5073671;28;19916;-47
2022/06/06 05:53:18;;;;;;;;;;;;;;;23.10;49.34;100906.69;5071169;28;19918;-46
2022/06/06 05:55:43;;;;;;;;;;;;;;;23.10;49.60;100923.31;5066307;28;19982;-48
2022/06/06 05:58:23;;;;;;;;;;;;;;;23.10;49.79;100925.94;5092149;28;20380;-50
2022/06/06 06:00:50;;;;;;;;;;;;;;;23.11;49.28;100924.19;5093085;28;19941;-52
2022/06/06 06:03:20;;;;;;;;;;;;;;;23.12;49.27;100925.94;5075472;28;19919;-46
2022/06/06 06:06:04;;;;;;;;;;;;;;;23.11;49.39;100929.44;5072410;28;19923;-50
2022/06/06 06:08:48;;;;;;;;;;;;;;;23.11;49.43;100929.44;5086125;28;19916;-50
2022/06/06 06:11:32;;;;;;;;;;;;;;;23.05;50.66;100925.94;5087482;28;19923;-51
2022/06/06 06:13:57;;;;;;;;;;;;;;;23.07;50.02;100932.94;5088978;28;19941;-53
2022/06/06 06:16:23;;;;;;;;;;;;;;;23.05;49.89;100928.56;5068054;28;19916;-50
2022/06/06 06:19:08;;;;;;;;;;;;;;;23.03;50.17;100932.06;5072650;28;20403;-49
2022/06/06 06:21:37;;;;;;;;;;;;;;;22.95;50.93;100939.03;5068006;28;19917;-48
2022/06/06 06:24:04;;;;;;;;;;;;;;;22.97;50.59;100940.81;5057005;28;19911;-51
2022/06/06 06:26:30;;;;;;;;;;;;;;;22.95;50.03;100945.19;5069895;28;19951;-48
2022/06/06 06:28:56;;;;;;;;;;;;;;;22.96;50.45;100946.94;5053974;28;20381;-51
2022/06/06 06:31:40;;;;;;;;;;;;;;;22.95;50.12;100949.53;5071881;28;19915;-49
2022/06/06 06:34:08;;;;;;;;;;;;;;;22.94;50.24;100959.19;5085732;28;19961;-47
2022/06/06 06:36:43;;;;;;;;;;;;;;;22.92;50.64;100950.44;5071726;28;19927;-49
2022/06/06 06:39:30;;;;;;;;;;;;;;;22.92;49.91;100955.69;5072582;28;19924;-51
2022/06/06 06:42:16;;;;;;;;;;;;;;;22.93;50.03;100957.44;5080777;28;20006;-52
2022/06/06 06:44:54;;;;;;;;;;;;;;;22.92;50.14;100947.81;5083930;28;19917;-48
2022/06/06 06:47:40;;;;;;;;;;;;;;;22.80;50.58;100955.59;5067873;28;19915;-52
2022/06/06 06:50:08;;;;;;;;;;;;;;;22.86;50.29;100960.91;5084155;28;19970;-54
2022/06/06 06:52:33;;;;;;;;;;;;;;;22.89;50.01;100971.44;5091243;28;19916;-50
2022/06/06 06:55:02;;;;;;;;;;;;;;;22.92;49.80;100974.06;5093484;28;19919;-48
2022/06/06 06:57:50;;;;;;;;;;;;;;;22.91;49.68;100978.44;5055484;28;19931;-47
2022/06/06 07:00:16;;;;;;;;;;;;;;;22.85;50.10;100982.78;5068097;28;20436;-42
2022/06/06 07:08:49;;;;;;;;;;;;;;;22.62;49.68;100994.03;5075676;28;19923;-45
2022/06/06 07:11:33;;;;;;;;;;;;;;;22.62;49.79;100999.28;5073942;28;20013;-46
2022/06/06 07:14:03;;;;;;;;;;;;;;;22.60;49.25;100996.69;5075159;28;19911;-42
2022/06/06 07:16:30;;;;;;;;;;;;;;;22.52;49.58;100997.50;5069635;28;19997;-49
2022/06/06 07:18:58;;;;;;;;;;;;;;;22.49;49.08;101007.97;5066234;28;19924;-45
2022/06/06 07:21:24;;;;;;;;;;;;;;;22.49;48.61;101002.72;5073884;28;19923;-43
2022/06/06 07:23:50;;;;;;;;;;;;;;;22.40;49.04;101006.16;5067235;28;19916;-46
2022/06/06 07:26:19;;;;;;;;;;;;;;;22.12;49.25;101009.47;5056084;28;19962;-48
2022/06/06 07:28:44;;;;;;;;;;;;;;;22.29;49.30;101016.56;5060370;22;19963;-59
2022/06/06 07:31:26;;;;;;;;;;;;;;;21.94;50.60;101025.06;5068580;28;19963;-58
2022/06/06 07:34:13;;;;;;;;;;;;;;;22.15;50.59;101014.75;5055768;28;19911;-64
2022/06/06 07:36:57;;;;;;;;;;;;;;;22.44;49.80;101010.56;5076869;28;19962;-69
2022/06/06 07:39:34;;;;;;;;;;;;;;;22.63;50.22;101016.81;5078831;28;20007;-62
2022/06/06 07:42:18;;;;;;;;;;;;;;;22.77;50.28;101015.13;5074721;28;20327;-64
2022/06/06 07:45:05;;;;;;;;;;;;;;;22.87;49.84;101020.44;5063656;28;20300;-55
2022/06/06 07:47:41;;;;;;;;;;;;;;;22.96;50.26;101036.25;5086489;28;19923;-59
2022/06/06 07:50:10;;;;;;;;;;;;;;;23.03;50.16;101032.75;5068128;28;19975;-59
2022/06/06 07:52:49;;;;;;;;;;;;;;;23.09;48.91;101025.78;5072838;28;20373;-56
2022/06/06 07:55:14;;;;;;;;;;;;;;;23.13;49.63;101033.66;5065979;28;19925;-50
2022/06/06 07:57:42;;;;;;;;;;;;;;;23.18;50.05;101041.56;5070045;28;19912;-60
2022/06/06 08:00:12;;;;;;;;;;;;;;;23.21;49.78;101052.09;5040164;28;19923;-58
2022/06/06 08:02:44;;;;;;;;;;;;;;;23.23;49.50;101060.84;5061642;28;19920;-58
2022/06/06 08:05:15;;;;;;;;;;;;;;;23.24;49.61;101060.00;5078242;28;19916;-61
2022/06/06 08:07:53;;;;;;;;;;;;;;;23.24;49.67;101054.75;5087912;28;19923;-56
2022/06/06 08:10:36;;;;;;;;;;;;;;;23.23;49.77;101055.59;5061614;28;19912;-62
2022/06/06 08:13:05;;;;;;;;;;;;;;;22.41;49.62;101050.75;5070901;28;20455;-61
2022/06/06 08:15:49;;;;;;;;;;;;;;;21.82;50.15;101037.22;5088344;28;20486;-66
2022/06/06 08:18:23;;;;;;;;;;;;;;;22.00;50.07;101052.22;5081579;28;19969;-62
2022/06/06 08:21:14;;;;;;;;;;;;;;;22.39;49.32;101052.50;5059380;28;19939;-69
2022/06/06 08:23:42;;;;;;;;;;;;;;;22.67;48.14;101050.06;5057432;28;19912;-68
2022/06/06 08:26:10;;;;;;;;;;;;;;;22.83;48.57;101058.06;5057444;28;20010;-67
2022/06/06 08:28:37;;;;;;;;;;;;;;;22.95;48.18;101065.09;5044128;28;19920;-70
2022/06/06 08:31:02;;;;;;;;;;;;;;;22.97;47.23;101063.38;5060290;28;19923;-66
2022/06/06 08:33:27;;;;;;;;;;;;;;;22.59;48.73;101062.28;5068074;28;20027;-65
2022/06/06 08:36:15;;;;;;;;;;;;;;;22.56;47.57;101063.16;5079632;28;19995;-65
2022/06/06 08:38:44;;;;;;;;;;;;;;;22.47;47.65;101065.72;5061642;28;19930;-61
2022/06/06 08:41:15;;;;;;;;;;;;;;;22.14;48.29;101065.44;5078655;28;19939;-57
2022/06/06 08:43:47;;;;;;;;;;;;;;;22.33;47.69;101070.84;5062382;28;19916;-51
2022/06/06 08:46:12;;;;;;;;;;;;;;;22.49;47.71;101076.22;5063267;28;20011;-52
2022/06/06 08:50:44;;;;;;;;;;;;;;;22.59;47.31;101072.78;5077536;28;20010;-51
2022/06/06 08:51:54;;;;;;;;;;;;;;;22.67;46.92;101085.97;5051084;28;20359;-49
2022/06/06 08:54:35;;;;;;;;;;;;;;;22.72;46.92;101085.09;5065825;28;19916;-55
2022/06/06 08:57:05;;;;;;;;;;;;;;;22.79;47.42;101090.41;5085008;28;19916;-54
2022/06/06 08:59:40;;;;;;;;;;;;;;;22.82;47.25;101085.19;5071471;28;19920;-53
2022/06/06 09:02:11;;;;;;;;;;;;;;;22.82;47.38;101085.19;5049580;28;19922;-52
2022/06/06 09:04:55;;;;;;;;;;;;;;;22.84;47.49;101088.69;5084156;28;20376;-52
2022/06/06 09:07:39;;;;;;;;;;;;;;;22.85;47.18;101087.84;5082575;28;19924;-50
2022/06/06 09:10:12;;;;;;;;;;;;;;;22.84;47.22;101091.34;5088846;28;20361;-55
2022/06/06 09:13:00;;;;;;;;;;;;;;;22.86;47.31;101102.72;5047693;28;20441;-55
2022/06/06 09:15:55;;;;;;;;;;;;;;;22.89;47.09;101097.47;5077757;28;19923;-54
2022/06/06 09:18:35;;;;;;;;;;;;;;;22.88;47.37;101095.72;4983441;28;19918;-55
2022/06/06 09:21:15;;;;;;;;;;;;;;;22.86;46.96;101100.97;5086834;28;19916;-54
2022/06/06 09:23:53;;;;;;;;;;;;;;;22.87;47.03;101091.34;5079753;28;19916;-56
2022/06/06 09:26:37;;;;;;;;;;;;;;;22.85;46.60;101090.47;5067601;28;19923;-49
2022/06/06 09:29:02;;;;;;;;;;;;;;;22.87;47.20;101099.22;5081141;28;20015;-51
2022/06/06 09:31:46;;;;;;;;;;;;;;;22.86;46.72;101097.47;5082700;28;19998;-55
2022/06/06 09:34:30;;;;;;;;;;;;;;;22.89;47.07;101097.47;5072131;28;19924;-57
2022/06/06 09:37:03;;;;;;;;;;;;;;;22.93;48.46;101091.38;5083444;28;20626;-54
2022/06/06 09:40:16;;;;;;;10.90;5.45;;;;;;;23.16;46.87;101090.59;5063469;28;20421;-54
2022/06/06 09:42:58;;;;;;;8.63;6.50;;;;;;;22.94;45.40;101093.13;4971519;28;20403;-55
2022/06/06 09:45:29;;;;;;;8.15;5.88;;;;;;;22.87;45.54;101091.34;5064403;28;20404;-51
2022/06/06 09:48:32;;;;;;;8.23;5.90;;;;;;;22.86;45.42;101082.56;5080183;28;20405;-53
2022/06/06 09:51:29;;;;;;;7.37;5.63;;;;;;;22.84;44.95;101093.97;5085743;28;20475;-51
2022/06/06 10:00:21;;;;;;;7.07;5.80;;;;;;;22.82;45.17;101095.69;5081361;28;20391;-52
2022/06/06 10:03:21;;;;;;;6.78;5.85;;;;;;;22.76;45.61;101076.38;5081372;28;21174;-49
2022/06/06 10:06:24;;;;;;;8.38;5.78;;;;;;;22.80;45.43;101081.66;5083591;28;20407;-53
2022/06/06 10:09:13;;;;;;;7.00;5.47;;;;;;;22.64;45.16;101065.81;5083764;28;20799;-53
2022/06/06 10:11:46;;;;;;;8.63;6.18;;;;;;;22.79;45.63;101090.41;5077823;28;20435;-52
2022/06/06 10:14:48;;;;;;;8.00;6.10;;;;;;;22.73;45.58;101092.13;5063538;28;20392;-52
2022/06/06 10:17:29;;;;;;;11.43;6.40;;;;;;;22.69;45.82;101095.59;5049748;28;20789;-56
2022/06/06 10:20:13;;;;;;;8.43;5.87;;;;;;;22.80;45.69;101100.91;5070446;28;20412;-49
2022/06/06 10:22:52;;;;;;;8.10;5.47;;;;;;;22.91;45.42;101101.00;5071874;28;20388;-51
2022/06/06 10:25:41;;;;;;;6.87;5.00;;;;;;;23.00;45.22;101101.03;5089278;28;20403;-53
2022/06/06 10:28:37;;;;;;;7.63;5.30;;;;;;;23.04;45.72;101092.31;5060820;28;21010;-55
2022/06/06 10:31:12;;;;;;;7.10;5.15;;;;;;;23.12;45.54;101094.09;5068439;28;20384;-54
2022/06/06 10:34:11;;;;;;;7.72;5.18;;;;;;;23.15;45.82;101099.34;5049312;28;20545;-56
2022/06/06 10:37:04;;;;;;;6.43;5.22;;;;;;;23.20;46.04;101103.75;5050798;28;20406;-53
2022/06/06 10:39:59;;;;;;;6.47;4.93;;;;;;;23.21;46.18;101099.38;5083654;28;20391;-51
2022/06/06 10:42:42;;;;;;;7.57;5.70;;;;;;;23.24;45.59;101099.41;5045390;28;20433;-55
2022/06/06 10:45:16;;;;;;;6.13;4.72;;;;;;;23.25;45.72;101090.66;5067703;28;20882;-55
2022/06/06 10:48:06;;;;;;;7.38;4.75;;;;;;;23.27;46.08;101099.44;5078038;28;20390;-56
2022/06/06 10:54:05;;;;;;;5.40;4.40;;;;;;;23.30;45.75;101096.81;5088619;28;20376;-55
2022/06/06 10:56:40;;;;;;;6.23;4.93;;;;;;;23.23;45.65;101076.63;5040100;28;20448;-52
2022/06/06 10:59:37;;;;;;;6.80;4.80;;;;;;;23.31;46.36;101080.19;5086643;28;20744;-52
2022/06/06 11:02:20;;;;;;;5.60;5.00;;;;;;;23.32;46.31;101087.19;5078805;28;20421;-56
2022/06/06 11:05:13;;;;;;;6.70;5.07;;;;;;;23.32;46.04;101081.94;5067025;28;20552;-49
2022/06/06 11:08:00;;;;;;;6.65;5.25;;;;;;;23.32;46.35;101081.94;5088921;28;20389;-55
2022/06/06 11:10:28;;;;;;;5.32;4.80;;;;;;;23.32;45.61;101075.78;5076581;28;20400;-49
2022/06/06 11:13:06;;;;;;;7.03;5.10;;;;;;;23.30;45.92;101067.91;5080580;28;20783;-53
2022/06/06 11:15:38;;;;;;;5.88;4.90;;;;;;;23.32;46.23;101078.41;5077932;28;20488;-54
2022/06/06 11:18:31;;;;;;;5.50;4.90;;;;;;;23.32;45.92;101081.94;5060348;28;20469;-55
2022/06/06 11:21:17;;;;;;;6.72;5.07;;;;;;;23.32;45.86;101079.31;5044247;28;20424;-54
2022/06/06 11:24:00;;;;;;;5.78;4.78;;;;;;;23.33;45.68;101083.69;5060340;28;20397;-55
2022/06/06 11:26:32;;;;;;;7.60;5.20;;;;;;;23.32;45.51;101081.94;5081294;28;20425;-54
2022/06/06 11:29:22;;;;;;;5.80;4.90;;;;;;;23.33;45.94;101082.81;5065407;28;20917;-56
2022/06/06 11:32:25;;;;;;;7.88;5.25;;;;;;;23.34;45.42;101080.19;5064859;28;20414;-53
2022/06/06 11:35:15;;;;;;;6.50;5.30;;;;;;;23.34;45.55;101081.94;5080077;28;20466;-54
2022/06/06 11:37:58;;;;;;;5.70;4.70;;;;;;;23.34;45.76;101090.69;5082779;28;20386;-50
2022/06/06 11:40:51;;;;;;;6.10;5.00;;;;;;;23.34;45.65;101080.19;5083434;28;20791;-53
2022/06/06 11:43:38;;;;;;;5.40;4.72;;;;;;;23.34;45.53;101080.19;5066011;28;20403;-56
2022/06/06 11:46:14;;;;;;;5.65;5.05;;;;;;;23.28;45.99;101064.41;5085535;28;20764;-56
2022/06/06 11:48:51;;;;;;;6.68;5.13;;;;;;;23.38;45.52;101080.19;5062712;28;20896;-53
2022/06/06 11:51:18;;;;;;;6.18;5.15;;;;;;;23.39;45.51;101081.94;5087225;28;20395;-50
2022/06/06 11:54:21;;;;;;;6.03;4.90;;;;;;;23.34;45.81;101074.94;5088082;28;20441;-55
2022/06/06 11:57:04;;;;;;;7.75;5.25;;;;;;;23.38;45.86;101082.81;5048962;28;20393;-56
2022/06/06 11:59:49;;;;;;;6.00;4.68;;;;;;;23.39;45.64;101076.69;5066153;28;20383;-52
2022/06/06 12:02:33;;;;;;;7.57;5.45;;;;;;;23.39;45.90;101067.06;5059338;28;20388;-52
2022/06/06 12:05:09;;;;;;;7.82;5.38;;;;;;;23.40;46.04;101062.69;5080184;28;20878;-48
2022/06/06 12:07:50;;;;;;;6.28;5.40;;;;;;;23.42;45.19;101071.44;5060140;28;20390;-50
2022/06/06 12:10:23;;;;;;;6.97;5.28;;;;;;;23.44;44.93;101074.94;5081946;28;20789;-52
2022/06/06 12:12:58;;;;;;;8.02;5.25;;;;;;;23.44;43.82;101070.59;5065065;28;20396;-48
2022/06/06 12:15:23;;;;;;;6.90;5.28;;;;;;;23.38;43.26;101048.66;5063833;28;20705;-52
2022/06/06 12:18:13;;;;;;;6.90;4.67;;;;;;;23.45;42.77;101066.19;5086786;28;20469;-52
2022/06/06 12:20:50;;;;;;;8.35;4.50;;;;;;;23.44;42.82;101067.06;5084290;28;20376;-53
2022/06/06 12:23:23;;;;;;;5.65;3.97;;;;;;;23.41;42.29;101069.69;5077755;28;20389;-48
2022/06/06 12:25:57;;;;;;;9.67;4.50;;;;;;;23.43;41.10;101063.56;5050435;28;20483;-53
2022/06/06 12:28:31;;;;;;;7.95;4.03;;;;;;;23.46;39.44;101054.81;5059267;28;20787;-53
2022/06/06 12:31:39;;;;;;;6.57;3.50;;;;;;;23.34;38.94;101053.91;5062525;28;20396;-50
2022/06/06 12:34:43;;;;;;;5.80;3.60;;;;;;;23.28;38.91;101064.41;5045462;28;20482;-54
2022/06/06 12:37:18;;;;;;;5.28;3.60;;;;;;;23.31;38.69;101069.66;5080739;28;20494;-51
2022/06/06 12:40:03;;;;;;;4.70;3.17;;;;;;;23.42;38.07;101055.66;5059935;28;20401;-54
2022/06/06 12:42:51;;;;;;;6.20;2.97;;;;;;;23.45;38.13;101050.44;5072041;28;20393;-50
2022/06/06 12:45:41;;;;;;;6.53;3.13;;;;;;;23.49;37.80;101054.81;5052494;28;20413;-50
2022/06/06 12:48:25;;;;;;;5.95;3.25;;;;;;;23.54;38.31;101060.94;5079841;28;20386;-53
2022/06/06 12:51:32;;;;;;;4.97;2.97;;;;;;;23.61;39.13;101053.97;5082090;28;20392;-50
2022/06/06 12:55:01;;;;;;;4.97;2.70;;;;;;;23.53;38.55;101043.44;5064656;28;20406;-51
2022/06/06 12:57:21;;;;;;;3.85;2.90;;;;;;;23.52;38.42;101052.19;5081997;28;20396;-50
2022/06/06 13:00:10;;;;;;;4.10;2.80;;;;;;;23.48;38.14;101055.69;5063295;28;20445;-47
2022/06/06 13:02:42;;;;;;;3.67;2.63;;;;;;;23.44;37.49;101059.19;5043407;28;20394;-48
2022/06/06 13:05:14;;;;;;;3.90;2.60;;;;;;;23.40;38.02;101062.69;5060605;28;20394;-49
2022/06/06 13:07:55;;;;;;;4.03;2.70;;;;;;;23.39;38.45;101071.44;5063183;28;20419;-48
2022/06/06 13:10:24;;;;;;;3.83;2.90;;;;;;;23.39;38.53;101081.94;5062461;28;20447;-53
2022/06/06 13:13:18;;;;;;;4.38;2.90;;;;;;;23.25;37.96;101080.16;5082896;28;20415;-50
2022/06/06 13:15:53;;;;;;;11.80;3.38;;;;;;;23.33;38.77;101115.22;5081305;28;20393;-49
2022/06/06 13:18:56;;;;;;;6.75;3.05;;;;;;;23.33;39.80;101103.84;5066776;28;20419;-50
2022/06/06 13:21:44;;;;;;;5.25;2.85;;;;;;;23.36;39.96;101102.97;5056207;28;20921;-55